sensor_id;sensor_type;location;lat;lon;timestamp;P1;durP1;ratioP1;P2;durP2;ratioP2
40433;SDS011;26146;51.114;5.654;2023-08-21T00:03:16;6.65;;;1.67;;
40433;SDS011;26146;51.114;5.654;2023-08-21T00:07:17;7.25;;;2.03;;
40433;SDS011;26146;51.114;5.654;2023-08-21T00:11:18;7.72;;;1.70;;
40433;SDS011;26146;51.114;5.654;2023-08-21T00:15:19;9.10;;;2.15;;
40433;SDS011;26146;51.114;5.654;2023-08-21T00:19:20;8.55;;;1.85;;
40433;SDS011;26146;51.114;5.654;2023-08-21T00:23:21;6.45;;;1.65;;
40433;SDS011;26146;51.114;5.654;2023-08-21T00:27:22;9.00;;;2.00;;
40433;SDS011;26146;51.114;5.654;2023-08-21T00:31:23;6.47;;;1.58;;
40433;SDS011;26146;51.114;5.654;2023-08-21T00:35:24;6.43;;;1.65;;
40433;SDS011;26146;51.114;5.654;2023-08-21T00:39:25;9.52;;;1.90;;
40433;SDS011;26146;51.114;5.654;2023-08-21T00:43:26;6.80;;;1.85;;
40433;SDS011;26146;51.114;5.654;2023-08-21T00:47:28;9.65;;;1.90;;
40433;SDS011;26146;51.114;5.654;2023-08-21T00:51:29;8.55;;;1.70;;
40433;SDS011;26146;51.114;5.654;2023-08-21T00:55:30;7.25;;;1.83;;
40433;SDS011;26146;51.114;5.654;2023-08-21T00:59:32;8.90;;;1.98;;
40433;SDS011;26146;51.114;5.654;2023-08-21T01:03:33;11.02;;;2.20;;
40433;SDS011;26146;51.114;5.654;2023-08-21T01:07:36;7.70;;;1.90;;
40433;SDS011;26146;51.114;5.654;2023-08-21T01:16:10;8.05;;;1.83;;
40433;SDS011;26146;51.114;5.654;2023-08-21T01:20:14;7.07;;;2.00;;
40433;SDS011;26146;51.114;5.654;2023-08-21T01:24:18;8.32;;;1.70;;
40433;SDS011;26146;51.114;5.654;2023-08-21T01:36:34;10.38;;;2.08;;
40433;SDS011;26146;51.114;5.654;2023-08-21T01:40:36;6.45;;;1.63;;
40433;SDS011;26146;51.114;5.654;2023-08-21T01:44:37;7.70;;;1.77;;
40433;SDS011;26146;51.114;5.654;2023-08-21T01:48:38;9.23;;;1.85;;
40433;SDS011;26146;51.114;5.654;2023-08-21T01:52:39;5.88;;;1.65;;
40433;SDS011;26146;51.114;5.654;2023-08-21T01:56:40;10.48;;;1.92;;
40433;SDS011;26146;51.114;5.654;2023-08-21T02:00:41;7.82;;;1.80;;
40433;SDS011;26146;51.114;5.654;2023-08-21T02:04:42;9.02;;;2.10;;
40433;SDS011;26146;51.114;5.654;2023-08-21T02:08:44;9.18;;;2.08;;
40433;SDS011;26146;51.114;5.654;2023-08-21T02:12:45;9.38;;;2.13;;
40433;SDS011;26146;51.114;5.654;2023-08-21T02:16:46;8.20;;;2.30;;
40433;SDS011;26146;51.114;5.654;2023-08-21T02:20:47;8.90;;;2.30;;
40433;SDS011;26146;51.114;5.654;2023-08-21T02:24:49;8.50;;;2.10;;
40433;SDS011;26146;51.114;5.654;2023-08-21T02:28:50;8.57;;;2.05;;
40433;SDS011;26146;51.114;5.654;2023-08-21T02:32:52;8.60;;;2.30;;
40433;SDS011;26146;51.114;5.654;2023-08-21T02:36:53;8.93;;;2.50;;
40433;SDS011;26146;51.114;5.654;2023-08-21T02:40:54;7.78;;;2.30;;
40433;SDS011;26146;51.114;5.654;2023-08-21T02:44:55;8.57;;;2.40;;
40433;SDS011;26146;51.114;5.654;2023-08-21T02:48:56;9.50;;;2.40;;
40433;SDS011;26146;51.114;5.654;2023-08-21T02:52:57;8.57;;;2.28;;
40433;SDS011;26146;51.114;5.654;2023-08-21T02:56:58;10.30;;;2.30;;
40433;SDS011;26146;51.114;5.654;2023-08-21T03:00:59;6.63;;;2.10;;
40433;SDS011;26146;51.114;5.654;2023-08-21T03:05:00;8.60;;;2.28;;
40433;SDS011;26146;51.114;5.654;2023-08-21T03:09:01;8.35;;;2.40;;
40433;SDS011;26146;51.114;5.654;2023-08-21T03:13:03;7.82;;;2.40;;
40433;SDS011;26146;51.114;5.654;2023-08-21T03:17:04;8.80;;;2.80;;
40433;SDS011;26146;51.114;5.654;2023-08-21T03:21:05;8.80;;;2.90;;
40433;SDS011;26146;51.114;5.654;2023-08-21T03:25:06;7.43;;;2.70;;
40433;SDS011;26146;51.114;5.654;2023-08-21T03:29:07;7.60;;;2.53;;
40433;SDS011;26146;51.114;5.654;2023-08-21T03:33:08;11.43;;;2.45;;
40433;SDS011;26146;51.114;5.654;2023-08-21T03:37:10;9.70;;;2.47;;
40433;SDS011;26146;51.114;5.654;2023-08-21T03:41:11;8.75;;;2.40;;
40433;SDS011;26146;51.114;5.654;2023-08-21T03:45:12;6.47;;;2.15;;
40433;SDS011;26146;51.114;5.654;2023-08-21T03:49:13;9.02;;;2.50;;
40433;SDS011;26146;51.114;5.654;2023-08-21T03:53:14;9.10;;;2.63;;
40433;SDS011;26146;51.114;5.654;2023-08-21T03:57:15;9.45;;;2.60;;
40433;SDS011;26146;51.114;5.654;2023-08-21T04:01:16;9.65;;;2.60;;
40433;SDS011;26146;51.114;5.654;2023-08-21T04:05:17;7.00;;;2.45;;
40433;SDS011;26146;51.114;5.654;2023-08-21T04:09:18;11.25;;;2.72;;
40433;SDS011;26146;51.114;5.654;2023-08-21T04:13:19;10.32;;;2.45;;
40433;SDS011;26146;51.114;5.654;2023-08-21T04:17:21;9.10;;;2.42;;
40433;SDS011;26146;51.114;5.654;2023-08-21T04:21:23;7.68;;;2.30;;
40433;SDS011;26146;51.114;5.654;2023-08-21T04:25:24;8.98;;;2.33;;
40433;SDS011;26146;51.114;5.654;2023-08-21T04:29:25;8.02;;;2.08;;
40433;SDS011;26146;51.114;5.654;2023-08-21T04:33:27;8.73;;;2.13;;
40433;SDS011;26146;51.114;5.654;2023-08-21T04:37:29;7.95;;;2.10;;
40433;SDS011;26146;51.114;5.654;2023-08-21T04:41:30;8.23;;;2.08;;
40433;SDS011;26146;51.114;5.654;2023-08-21T04:45:30;9.60;;;2.20;;
40433;SDS011;26146;51.114;5.654;2023-08-21T04:49:31;9.48;;;2.17;;
40433;SDS011;26146;51.114;5.654;2023-08-21T04:53:32;7.07;;;2.00;;
40433;SDS011;26146;51.114;5.654;2023-08-21T04:57:34;7.57;;;2.42;;
40433;SDS011;26146;51.114;5.654;2023-08-21T05:01:35;9.50;;;2.30;;
40433;SDS011;26146;51.114;5.654;2023-08-21T05:05:36;8.98;;;2.50;;
40433;SDS011;26146;51.114;5.654;2023-08-21T05:09:37;9.38;;;2.50;;
40433;SDS011;26146;51.114;5.654;2023-08-21T05:13:38;8.23;;;2.20;;
40433;SDS011;26146;51.114;5.654;2023-08-21T05:17:39;7.93;;;2.33;;
40433;SDS011;26146;51.114;5.654;2023-08-21T05:21:40;9.70;;;2.35;;
40433;SDS011;26146;51.114;5.654;2023-08-21T05:25:44;9.63;;;2.33;;
40433;SDS011;26146;51.114;5.654;2023-08-21T05:29:46;8.88;;;2.25;;
40433;SDS011;26146;51.114;5.654;2023-08-21T05:33:47;6.97;;;2.33;;
40433;SDS011;26146;51.114;5.654;2023-08-21T05:37:49;10.63;;;2.38;;
40433;SDS011;26146;51.114;5.654;2023-08-21T05:41:50;8.32;;;2.25;;
40433;SDS011;26146;51.114;5.654;2023-08-21T05:45:51;10.20;;;2.40;;
40433;SDS011;26146;51.114;5.654;2023-08-21T05:49:52;9.90;;;2.50;;
40433;SDS011;26146;51.114;5.654;2023-08-21T05:53:53;8.25;;;2.20;;
40433;SDS011;26146;51.114;5.654;2023-08-21T05:57:54;8.90;;;2.22;;
40433;SDS011;26146;51.114;5.654;2023-08-21T06:01:55;8.88;;;2.55;;
40433;SDS011;26146;51.114;5.654;2023-08-21T06:05:56;8.10;;;2.40;;
40433;SDS011;26146;51.114;5.654;2023-08-21T06:09:57;8.30;;;2.30;;
40433;SDS011;26146;51.114;5.654;2023-08-21T06:13:58;9.13;;;2.70;;
40433;SDS011;26146;51.114;5.654;2023-08-21T06:17:59;10.57;;;2.80;;
40433;SDS011;26146;51.114;5.654;2023-08-21T06:22:00;9.75;;;2.95;;
40433;SDS011;26146;51.114;5.654;2023-08-21T06:26:01;10.85;;;2.88;;
40433;SDS011;26146;51.114;5.654;2023-08-21T06:30:02;8.93;;;2.80;;
40433;SDS011;26146;51.114;5.654;2023-08-21T06:34:04;7.97;;;2.80;;
40433;SDS011;26146;51.114;5.654;2023-08-21T06:38:05;7.85;;;2.65;;
40433;SDS011;26146;51.114;5.654;2023-08-21T06:42:09;9.73;;;2.92;;
40433;SDS011;26146;51.114;5.654;2023-08-21T06:46:10;11.85;;;2.90;;
40433;SDS011;26146;51.114;5.654;2023-08-21T06:50:12;10.15;;;2.72;;
40433;SDS011;26146;51.114;5.654;2023-08-21T06:54:13;10.95;;;2.70;;
40433;SDS011;26146;51.114;5.654;2023-08-21T06:58:14;10.68;;;2.83;;
40433;SDS011;26146;51.114;5.654;2023-08-21T07:02:15;12.43;;;2.80;;
40433;SDS011;26146;51.114;5.654;2023-08-21T07:06:18;9.00;;;2.63;;
40433;SDS011;26146;51.114;5.654;2023-08-21T07:10:22;12.50;;;2.80;;
40433;SDS011;26146;51.114;5.654;2023-08-21T07:14:23;10.82;;;3.10;;
40433;SDS011;26146;51.114;5.654;2023-08-21T07:18:24;9.85;;;2.83;;
40433;SDS011;26146;51.114;5.654;2023-08-21T07:22:25;9.73;;;2.88;;
40433;SDS011;26146;51.114;5.654;2023-08-21T07:26:26;10.45;;;2.67;;
40433;SDS011;26146;51.114;5.654;2023-08-21T07:30:28;9.98;;;2.80;;
40433;SDS011;26146;51.114;5.654;2023-08-21T07:34:29;8.38;;;2.72;;
40433;SDS011;26146;51.114;5.654;2023-08-21T07:38:31;9.00;;;2.50;;
40433;SDS011;26146;51.114;5.654;2023-08-21T07:42:32;11.05;;;3.00;;
40433;SDS011;26146;51.114;5.654;2023-08-21T07:46:33;8.43;;;3.10;;
40433;SDS011;26146;51.114;5.654;2023-08-21T07:50:34;9.98;;;3.10;;
40433;SDS011;26146;51.114;5.654;2023-08-21T07:54:35;8.70;;;2.40;;
40433;SDS011;26146;51.114;5.654;2023-08-21T07:58:36;9.40;;;2.70;;
40433;SDS011;26146;51.114;5.654;2023-08-21T08:02:37;10.40;;;2.90;;
40433;SDS011;26146;51.114;5.654;2023-08-21T08:06:38;8.18;;;2.38;;
40433;SDS011;26146;51.114;5.654;2023-08-21T08:10:39;8.65;;;2.33;;
40433;SDS011;26146;51.114;5.654;2023-08-21T08:14:41;10.25;;;2.35;;
40433;SDS011;26146;51.114;5.654;2023-08-21T08:18:42;10.23;;;2.50;;
40433;SDS011;26146;51.114;5.654;2023-08-21T08:22:43;10.15;;;2.28;;
40433;SDS011;26146;51.114;5.654;2023-08-21T08:26:44;8.57;;;2.03;;
40433;SDS011;26146;51.114;5.654;2023-08-21T08:30:46;8.55;;;2.20;;
40433;SDS011;26146;51.114;5.654;2023-08-21T08:34:47;9.63;;;2.35;;
40433;SDS011;26146;51.114;5.654;2023-08-21T08:38:48;9.52;;;2.40;;
40433;SDS011;26146;51.114;5.654;2023-08-21T08:42:49;7.78;;;1.80;;
40433;SDS011;26146;51.114;5.654;2023-08-21T08:46:51;7.75;;;1.92;;
40433;SDS011;26146;51.114;5.654;2023-08-21T08:50:53;9.13;;;2.28;;
40433;SDS011;26146;51.114;5.654;2023-08-21T08:54:54;9.02;;;2.00;;
40433;SDS011;26146;51.114;5.654;2023-08-21T08:58:58;7.68;;;1.73;;
40433;SDS011;26146;51.114;5.654;2023-08-21T09:02:59;6.68;;;1.55;;
40433;SDS011;26146;51.114;5.654;2023-08-21T09:07:10;7.80;;;1.50;;
40433;SDS011;26146;51.114;5.654;2023-08-21T09:11:11;8.68;;;1.77;;
40433;SDS011;26146;51.114;5.654;2023-08-21T09:15:16;8.15;;;1.50;;
40433;SDS011;26146;51.114;5.654;2023-08-21T09:19:20;8.45;;;1.52;;
40433;SDS011;26146;51.114;5.654;2023-08-21T09:23:22;6.10;;;1.13;;
40433;SDS011;26146;51.114;5.654;2023-08-21T09:27:23;9.10;;;1.45;;
40433;SDS011;26146;51.114;5.654;2023-08-21T09:31:29;7.63;;;1.42;;
40433;SDS011;26146;51.114;5.654;2023-08-21T09:35:32;7.22;;;1.30;;
40433;SDS011;26146;51.114;5.654;2023-08-21T09:39:34;7.63;;;1.17;;
40433;SDS011;26146;51.114;5.654;2023-08-21T09:43:40;6.80;;;1.13;;
40433;SDS011;26146;51.114;5.654;2023-08-21T09:47:43;6.50;;;1.10;;
40433;SDS011;26146;51.114;5.654;2023-08-21T09:51:44;7.05;;;1.23;;
40433;SDS011;26146;51.114;5.654;2023-08-21T09:55:45;5.00;;;0.95;;
40433;SDS011;26146;51.114;5.654;2023-08-21T09:59:47;11.27;;;1.20;;
40433;SDS011;26146;51.114;5.654;2023-08-21T10:03:49;5.80;;;1.00;;
40433;SDS011;26146;51.114;5.654;2023-08-21T10:07:55;6.88;;;0.90;;
40433;SDS011;26146;51.114;5.654;2023-08-21T10:11:57;7.47;;;1.00;;
40433;SDS011;26146;51.114;5.654;2023-08-21T10:15:58;6.50;;;1.00;;
40433;SDS011;26146;51.114;5.654;2023-08-21T10:20:03;7.13;;;1.02;;
40433;SDS011;26146;51.114;5.654;2023-08-21T10:24:09;5.65;;;0.85;;
40433;SDS011;26146;51.114;5.654;2023-08-21T10:28:10;6.70;;;1.20;;
40433;SDS011;26146;51.114;5.654;2023-08-21T10:32:11;6.28;;;0.90;;
40433;SDS011;26146;51.114;5.654;2023-08-21T10:41:07;5.18;;;0.90;;
40433;SDS011;26146;51.114;5.654;2023-08-21T10:45:11;4.65;;;0.80;;
40433;SDS011;26146;51.114;5.654;2023-08-21T10:49:12;5.55;;;0.90;;
40433;SDS011;26146;51.114;5.654;2023-08-21T10:53:13;6.97;;;1.00;;
40433;SDS011;26146;51.114;5.654;2023-08-21T10:57:15;4.88;;;1.00;;
40433;SDS011;26146;51.114;5.654;2023-08-21T11:01:16;4.57;;;0.90;;
40433;SDS011;26146;51.114;5.654;2023-08-21T11:05:17;7.63;;;1.30;;
40433;SDS011;26146;51.114;5.654;2023-08-21T11:09:18;6.15;;;1.00;;
40433;SDS011;26146;51.114;5.654;2023-08-21T11:13:19;4.78;;;0.80;;
40433;SDS011;26146;51.114;5.654;2023-08-21T11:17:23;6.38;;;1.05;;
40433;SDS011;26146;51.114;5.654;2023-08-21T11:21:24;5.85;;;0.90;;
40433;SDS011;26146;51.114;5.654;2023-08-21T11:25:25;7.82;;;1.30;;
40433;SDS011;26146;51.114;5.654;2023-08-21T11:29:27;7.70;;;1.00;;
40433;SDS011;26146;51.114;5.654;2023-08-21T11:33:29;7.03;;;1.10;;
40433;SDS011;26146;51.114;5.654;2023-08-21T11:37:31;6.50;;;1.00;;
40433;SDS011;26146;51.114;5.654;2023-08-21T11:41:36;7.38;;;1.05;;
40433;SDS011;26146;51.114;5.654;2023-08-21T11:45:53;7.40;;;1.20;;
40433;SDS011;26146;51.114;5.654;2023-08-21T11:49:54;7.63;;;1.23;;
40433;SDS011;26146;51.114;5.654;2023-08-21T11:54:03;6.32;;;1.20;;
40433;SDS011;26146;51.114;5.654;2023-08-21T11:58:07;6.28;;;1.10;;
40433;SDS011;26146;51.114;5.654;2023-08-21T12:02:09;6.03;;;1.17;;
40433;SDS011;26146;51.114;5.654;2023-08-21T12:06:23;6.68;;;0.75;;
40433;SDS011;26146;51.114;5.654;2023-08-21T12:10:26;7.85;;;1.45;;
40433;SDS011;26146;51.114;5.654;2023-08-21T12:18:30;5.50;;;1.02;;
40433;SDS011;26146;51.114;5.654;2023-08-21T12:22:31;5.47;;;1.08;;
40433;SDS011;26146;51.114;5.654;2023-08-21T12:26:33;8.48;;;1.40;;
40433;SDS011;26146;51.114;5.654;2023-08-21T12:30:34;5.45;;;0.82;;
40433;SDS011;26146;51.114;5.654;2023-08-21T12:34:35;7.25;;;0.90;;
40433;SDS011;26146;51.114;5.654;2023-08-21T12:38:36;7.25;;;1.13;;
40433;SDS011;26146;51.114;5.654;2023-08-21T12:42:37;7.32;;;1.00;;
40433;SDS011;26146;51.114;5.654;2023-08-21T12:46:38;5.30;;;0.90;;
40433;SDS011;26146;51.114;5.654;2023-08-21T12:50:39;5.97;;;1.10;;
40433;SDS011;26146;51.114;5.654;2023-08-21T12:54:40;7.07;;;1.30;;
40433;SDS011;26146;51.114;5.654;2023-08-21T12:58:43;5.55;;;1.00;;
40433;SDS011;26146;51.114;5.654;2023-08-21T13:02:45;5.80;;;1.20;;
40433;SDS011;26146;51.114;5.654;2023-08-21T13:06:47;6.50;;;1.10;;
40433;SDS011;26146;51.114;5.654;2023-08-21T13:10:48;6.97;;;1.10;;
40433;SDS011;26146;51.114;5.654;2023-08-21T13:14:49;6.80;;;1.10;;
40433;SDS011;26146;51.114;5.654;2023-08-21T13:18:50;5.18;;;1.00;;
40433;SDS011;26146;51.114;5.654;2023-08-21T13:22:51;6.78;;;1.27;;
40433;SDS011;26146;51.114;5.654;2023-08-21T13:26:52;6.75;;;1.20;;
40433;SDS011;26146;51.114;5.654;2023-08-21T13:30:53;6.03;;;1.20;;
40433;SDS011;26146;51.114;5.654;2023-08-21T13:34:54;6.00;;;1.10;;
40433;SDS011;26146;51.114;5.654;2023-08-21T13:38:57;6.03;;;1.03;;
40433;SDS011;26146;51.114;5.654;2023-08-21T13:42:58;6.10;;;0.95;;
40433;SDS011;26146;51.114;5.654;2023-08-21T13:47:00;6.63;;;1.00;;
40433;SDS011;26146;51.114;5.654;2023-08-21T13:51:01;5.80;;;1.00;;
40433;SDS011;26146;51.114;5.654;2023-08-21T13:55:02;5.88;;;1.20;;
40433;SDS011;26146;51.114;5.654;2023-08-21T13:59:04;5.15;;;1.02;;
40433;SDS011;26146;51.114;5.654;2023-08-21T14:03:06;7.43;;;1.27;;
40433;SDS011;26146;51.114;5.654;2023-08-21T14:07:07;5.70;;;1.13;;
40433;SDS011;26146;51.114;5.654;2023-08-21T14:11:08;6.13;;;1.17;;
40433;SDS011;26146;51.114;5.654;2023-08-21T14:15:09;6.22;;;1.30;;
40433;SDS011;26146;51.114;5.654;2023-08-21T14:19:11;4.60;;;1.00;;
40433;SDS011;26146;51.114;5.654;2023-08-21T14:23:12;6.28;;;1.10;;
40433;SDS011;26146;51.114;5.654;2023-08-21T14:27:13;5.30;;;1.10;;
40433;SDS011;26146;51.114;5.654;2023-08-21T14:31:14;6.68;;;1.58;;
40433;SDS011;26146;51.114;5.654;2023-08-21T14:35:15;5.85;;;1.42;;
40433;SDS011;26146;51.114;5.654;2023-08-21T14:39:18;8.07;;;1.40;;
40433;SDS011;26146;51.114;5.654;2023-08-21T14:43:35;7.13;;;1.17;;
40433;SDS011;26146;51.114;5.654;2023-08-21T14:47:38;6.70;;;1.75;;
40433;SDS011;26146;51.114;5.654;2023-08-21T14:51:39;5.90;;;1.40;;
40433;SDS011;26146;51.114;5.654;2023-08-21T14:55:40;5.50;;;1.20;;
40433;SDS011;26146;51.114;5.654;2023-08-21T14:59:41;5.13;;;1.30;;
40433;SDS011;26146;51.114;5.654;2023-08-21T15:03:42;6.75;;;1.50;;
40433;SDS011;26146;51.114;5.654;2023-08-21T15:07:44;5.93;;;1.17;;
40433;SDS011;26146;51.114;5.654;2023-08-21T15:11:44;6.35;;;1.42;;
40433;SDS011;26146;51.114;5.654;2023-08-21T15:15:47;7.53;;;1.50;;
40433;SDS011;26146;51.114;5.654;2023-08-21T15:19:51;7.20;;;1.90;;
40433;SDS011;26146;51.114;5.654;2023-08-21T15:23:54;6.95;;;1.70;;
40433;SDS011;26146;51.114;5.654;2023-08-21T15:27:55;6.07;;;1.40;;
40433;SDS011;26146;51.114;5.654;2023-08-21T15:31:58;7.88;;;1.50;;
40433;SDS011;26146;51.114;5.654;2023-08-21T15:36:01;8.60;;;1.70;;
40433;SDS011;26146;51.114;5.654;2023-08-21T15:40:02;6.78;;;1.60;;
40433;SDS011;26146;51.114;5.654;2023-08-21T15:44:03;7.57;;;1.92;;
40433;SDS011;26146;51.114;5.654;2023-08-21T15:48:06;6.43;;;1.67;;
40433;SDS011;26146;51.114;5.654;2023-08-21T15:52:07;6.15;;;1.35;;
40433;SDS011;26146;51.114;5.654;2023-08-21T15:56:10;6.35;;;1.50;;
40433;SDS011;26146;51.114;5.654;2023-08-21T16:00:11;7.10;;;1.30;;
40433;SDS011;26146;51.114;5.654;2023-08-21T16:04:13;7.20;;;1.40;;
40433;SDS011;26146;51.114;5.654;2023-08-21T16:08:14;9.35;;;1.58;;
40433;SDS011;26146;51.114;5.654;2023-08-21T16:12:15;5.00;;;1.15;;
40433;SDS011;26146;51.114;5.654;2023-08-21T16:16:15;5.97;;;1.40;;
40433;SDS011;26146;51.114;5.654;2023-08-21T16:20:16;6.20;;;1.30;;
40433;SDS011;26146;51.114;5.654;2023-08-21T16:24:18;5.15;;;1.25;;
40433;SDS011;26146;51.114;5.654;2023-08-21T16:28:19;6.93;;;1.30;;
40433;SDS011;26146;51.114;5.654;2023-08-21T16:32:20;6.93;;;1.50;;
40433;SDS011;26146;51.114;5.654;2023-08-21T16:36:23;5.65;;;1.20;;
40433;SDS011;26146;51.114;5.654;2023-08-21T16:40:26;7.05;;;1.20;;
40433;SDS011;26146;51.114;5.654;2023-08-21T16:44:27;7.38;;;1.30;;
40433;SDS011;26146;51.114;5.654;2023-08-21T16:48:30;5.78;;;1.40;;
40433;SDS011;26146;51.114;5.654;2023-08-21T16:52:36;6.70;;;1.55;;
40433;SDS011;26146;51.114;5.654;2023-08-21T16:56:37;8.43;;;1.80;;
40433;SDS011;26146;51.114;5.654;2023-08-21T17:00:37;5.97;;;1.70;;
40433;SDS011;26146;51.114;5.654;2023-08-21T17:04:38;6.50;;;1.70;;
40433;SDS011;26146;51.114;5.654;2023-08-21T17:08:39;7.57;;;1.48;;
40433;SDS011;26146;51.114;5.654;2023-08-21T17:12:40;6.88;;;1.70;;
40433;SDS011;26146;51.114;5.654;2023-08-21T17:16:42;6.13;;;1.30;;
40433;SDS011;26146;51.114;5.654;2023-08-21T17:20:43;7.20;;;1.30;;
40433;SDS011;26146;51.114;5.654;2023-08-21T17:24:47;6.77;;;1.40;;
40433;SDS011;26146;51.114;5.654;2023-08-21T17:28:48;5.07;;;1.10;;
40433;SDS011;26146;51.114;5.654;2023-08-21T17:32:51;6.05;;;1.15;;
40433;SDS011;26146;51.114;5.654;2023-08-21T17:36:53;6.15;;;1.30;;
40433;SDS011;26146;51.114;5.654;2023-08-21T17:40:56;5.50;;;1.33;;
40433;SDS011;26146;51.114;5.654;2023-08-21T17:44:57;7.18;;;1.38;;
40433;SDS011;26146;51.114;5.654;2023-08-21T17:49:00;7.93;;;1.30;;
40433;SDS011;26146;51.114;5.654;2023-08-21T17:53:04;6.78;;;1.45;;
40433;SDS011;26146;51.114;5.654;2023-08-21T17:57:05;6.13;;;1.10;;
40433;SDS011;26146;51.114;5.654;2023-08-21T18:01:06;6.78;;;1.35;;
40433;SDS011;26146;51.114;5.654;2023-08-21T18:05:07;7.47;;;1.50;;
40433;SDS011;26146;51.114;5.654;2023-08-21T18:09:09;7.85;;;1.60;;
40433;SDS011;26146;51.114;5.654;2023-08-21T18:13:10;6.30;;;1.40;;
40433;SDS011;26146;51.114;5.654;2023-08-21T18:17:11;6.20;;;1.48;;
40433;SDS011;26146;51.114;5.654;2023-08-21T18:21:19;9.00;;;1.80;;
40433;SDS011;26146;51.114;5.654;2023-08-21T18:25:23;6.45;;;1.40;;
40433;SDS011;26146;51.114;5.654;2023-08-21T18:29:24;6.20;;;1.60;;
40433;SDS011;26146;51.114;5.654;2023-08-21T18:33:27;6.65;;;1.50;;
40433;SDS011;26146;51.114;5.654;2023-08-21T18:37:31;7.10;;;1.40;;
40433;SDS011;26146;51.114;5.654;2023-08-21T18:41:34;5.63;;;1.40;;
40433;SDS011;26146;51.114;5.654;2023-08-21T18:45:36;7.55;;;1.60;;
40433;SDS011;26146;51.114;5.654;2023-08-21T18:49:37;6.15;;;1.42;;
40433;SDS011;26146;51.114;5.654;2023-08-21T18:53:42;5.43;;;1.48;;
40433;SDS011;26146;51.114;5.654;2023-08-21T18:57:44;5.63;;;1.50;;
40433;SDS011;26146;51.114;5.654;2023-08-21T19:01:44;5.95;;;1.42;;
40433;SDS011;26146;51.114;5.654;2023-08-21T19:05:45;6.50;;;1.70;;
40433;SDS011;26146;51.114;5.654;2023-08-21T19:09:46;5.90;;;1.60;;
40433;SDS011;26146;51.114;5.654;2023-08-21T19:13:47;5.85;;;1.55;;
40433;SDS011;26146;51.114;5.654;2023-08-21T19:17:48;6.35;;;1.50;;
40433;SDS011;26146;51.114;5.654;2023-08-21T19:21:49;8.30;;;1.70;;
40433;SDS011;26146;51.114;5.654;2023-08-21T19:25:52;7.60;;;1.73;;
40433;SDS011;26146;51.114;5.654;2023-08-21T19:29:58;5.97;;;1.90;;
40433;SDS011;26146;51.114;5.654;2023-08-21T19:33:59;9.15;;;2.35;;
40433;SDS011;26146;51.114;5.654;2023-08-21T19:38:00;8.65;;;2.28;;
40433;SDS011;26146;51.114;5.654;2023-08-21T19:42:01;7.43;;;2.28;;
40433;SDS011;26146;51.114;5.654;2023-08-21T19:46:02;6.22;;;1.83;;
40433;SDS011;26146;51.114;5.654;2023-08-21T19:50:04;6.80;;;1.98;;
40433;SDS011;26146;51.114;5.654;2023-08-21T19:54:05;6.43;;;2.20;;
40433;SDS011;26146;51.114;5.654;2023-08-21T19:58:08;15.85;;;2.20;;
40433;SDS011;26146;51.114;5.654;2023-08-21T20:02:11;7.43;;;1.90;;
40433;SDS011;26146;51.114;5.654;2023-08-21T20:06:12;6.03;;;1.80;;
40433;SDS011;26146;51.114;5.654;2023-08-21T20:10:15;7.40;;;2.13;;
40433;SDS011;26146;51.114;5.654;2023-08-21T20:14:16;6.38;;;1.90;;
40433;SDS011;26146;51.114;5.654;2023-08-21T20:18:19;6.75;;;1.80;;
40433;SDS011;26146;51.114;5.654;2023-08-21T20:22:20;6.90;;;2.00;;
40433;SDS011;26146;51.114;5.654;2023-08-21T20:26:24;6.10;;;2.10;;
40433;SDS011;26146;51.114;5.654;2023-08-21T20:30:27;7.80;;;2.40;;
40433;SDS011;26146;51.114;5.654;2023-08-21T20:34:28;6.95;;;2.47;;
40433;SDS011;26146;51.114;5.654;2023-08-21T20:38:29;7.35;;;2.80;;
40433;SDS011;26146;51.114;5.654;2023-08-21T20:42:30;7.35;;;2.20;;
40433;SDS011;26146;51.114;5.654;2023-08-21T20:46:31;6.63;;;2.40;;
40433;SDS011;26146;51.114;5.654;2023-08-21T20:50:32;6.30;;;2.40;;
40433;SDS011;26146;51.114;5.654;2023-08-21T20:54:36;7.25;;;2.22;;
40433;SDS011;26146;51.114;5.654;2023-08-21T20:58:37;9.82;;;2.38;;
40433;SDS011;26146;51.114;5.654;2023-08-21T21:02:38;6.20;;;2.33;;
40433;SDS011;26146;51.114;5.654;2023-08-21T21:06:39;8.63;;;2.67;;
40433;SDS011;26146;51.114;5.654;2023-08-21T21:10:40;8.80;;;2.78;;
40433;SDS011;26146;51.114;5.654;2023-08-21T21:14:41;8.27;;;2.85;;
40433;SDS011;26146;51.114;5.654;2023-08-21T21:18:42;7.22;;;2.92;;
40433;SDS011;26146;51.114;5.654;2023-08-21T21:22:43;8.27;;;2.80;;
40433;SDS011;26146;51.114;5.654;2023-08-21T21:26:45;9.13;;;3.17;;
40433;SDS011;26146;51.114;5.654;2023-08-21T21:30:54;7.20;;;2.75;;
40433;SDS011;26146;51.114;5.654;2023-08-21T21:34:59;7.95;;;2.70;;
40433;SDS011;26146;51.114;5.654;2023-08-21T21:39:00;7.10;;;2.42;;
40433;SDS011;26146;51.114;5.654;2023-08-21T21:43:01;10.85;;;2.80;;
40433;SDS011;26146;51.114;5.654;2023-08-21T21:47:02;7.35;;;2.67;;
40433;SDS011;26146;51.114;5.654;2023-08-21T21:51:05;9.48;;;2.83;;
40433;SDS011;26146;51.114;5.654;2023-08-21T21:55:06;8.15;;;2.65;;
40433;SDS011;26146;51.114;5.654;2023-08-21T21:59:08;8.80;;;2.70;;
40433;SDS011;26146;51.114;5.654;2023-08-21T22:03:09;7.85;;;2.60;;
40433;SDS011;26146;51.114;5.654;2023-08-21T22:07:09;6.38;;;2.00;;
40433;SDS011;26146;51.114;5.654;2023-08-21T22:11:10;6.50;;;2.20;;
40433;SDS011;26146;51.114;5.654;2023-08-21T22:15:13;5.78;;;2.10;;
40433;SDS011;26146;51.114;5.654;2023-08-21T22:19:14;7.13;;;2.08;;
40433;SDS011;26146;51.114;5.654;2023-08-21T22:23:15;7.18;;;1.98;;
40433;SDS011;26146;51.114;5.654;2023-08-21T22:27:16;6.57;;;2.00;;
40433;SDS011;26146;51.114;5.654;2023-08-21T22:31:17;6.80;;;2.15;;
40433;SDS011;26146;51.114;5.654;2023-08-21T22:35:18;8.13;;;2.33;;
40433;SDS011;26146;51.114;5.654;2023-08-21T22:39:18;7.68;;;2.45;;
40433;SDS011;26146;51.114;5.654;2023-08-21T22:43:20;7.68;;;2.20;;
40433;SDS011;26146;51.114;5.654;2023-08-21T22:47:21;8.98;;;2.67;;
40433;SDS011;26146;51.114;5.654;2023-08-21T22:51:22;8.70;;;2.58;;
40433;SDS011;26146;51.114;5.654;2023-08-21T22:55:22;7.85;;;2.40;;
40433;SDS011;26146;51.114;5.654;2023-08-21T22:59:24;8.32;;;2.33;;
40433;SDS011;26146;51.114;5.654;2023-08-21T23:03:25;6.63;;;2.28;;
40433;SDS011;26146;51.114;5.654;2023-08-21T23:07:26;8.38;;;2.60;;
40433;SDS011;26146;51.114;5.654;2023-08-21T23:11:27;7.32;;;2.60;;
40433;SDS011;26146;51.114;5.654;2023-08-21T23:15:28;7.70;;;2.50;;
40433;SDS011;26146;51.114;5.654;2023-08-21T23:19:29;7.45;;;2.40;;
40433;SDS011;26146;51.114;5.654;2023-08-21T23:23:31;7.57;;;2.35;;
40433;SDS011;26146;51.114;5.654;2023-08-21T23:27:32;8.27;;;2.38;;
40433;SDS011;26146;51.114;5.654;2023-08-21T23:31:33;6.20;;;2.17;;
40433;SDS011;26146;51.114;5.654;2023-08-21T23:35:37;7.35;;;2.50;;
40433;SDS011;26146;51.114;5.654;2023-08-21T23:39:38;7.75;;;2.30;;
40433;SDS011;26146;51.114;5.654;2023-08-21T23:43:39;9.80;;;2.80;;
40433;SDS011;26146;51.114;5.654;2023-08-21T23:47:42;6.88;;;2.63;;
40433;SDS011;26146;51.114;5.654;2023-08-21T23:51:43;7.60;;;2.70;;
40433;SDS011;26146;51.114;5.654;2023-08-21T23:55:44;8.93;;;2.70;;
40433;SDS011;26146;51.114;5.654;2023-08-21T23:59:45;8.40;;;2.90;;
